Frosinone Military Airport LIRH

Flugplatz Daten

Name: Frosinone Military Airport

Ident: LIRH

Lat: 41,64640045

Long: 13,29979992

Platzhöhe: 0 ft

IataCode: QFR

City: Frosinone

Metar

2022/08/12 17:55
LIRH 121755Z 26003KT 9999 FEW030 25/17 Q1011

Taf

2022/07/01 09:24
TAF TAF LIRH 010800Z 0109/0121 15005KT CAVOK
TEMPO 0112/0117 19015KT
Gewünschte Webcam nicht vorhanden? Dann fügen Sie eine hinzu. Sie wird dann so schnell wie möglich freigeschaltet
Url: Title: